sensor_id;sensor_type;location;lat;lon;timestamp;pressure;altitude;pressure_sealevel;temperature;humidity
60417;BME280;46263;44.726;10.396;2023-05-09T00:01:16;100785.31;;;20.10;63.79
60417;BME280;46263;44.726;10.396;2023-05-09T00:03:42;100783.69;;;19.93;63.69
60417;BME280;46263;44.726;10.396;2023-05-09T00:06:08;100793.53;;;19.92;64.29
60417;BME280;46263;44.726;10.396;2023-05-09T00:08:34;100785.44;;;19.88;64.02
60417;BME280;46263;44.726;10.396;2023-05-09T00:11:00;100791.50;;;19.85;64.17
60417;BME280;46263;44.726;10.396;2023-05-09T00:13:26;100797.00;;;19.83;64.43
60417;BME280;46263;44.726;10.396;2023-05-09T00:15:52;100799.41;;;19.94;64.30
60417;BME280;46263;44.726;10.396;2023-05-09T00:18:21;100803.69;;;20.02;63.96
60417;BME280;46263;44.726;10.396;2023-05-09T00:20:48;100795.16;;;20.09;63.98
60417;BME280;46263;44.726;10.396;2023-05-09T00:23:13;100797.00;;;20.14;63.70
60417;BME280;46263;44.726;10.396;2023-05-09T00:25:39;100789.25;;;20.15;63.69
60417;BME280;46263;44.726;10.396;2023-05-09T00:28:04;100778.97;;;20.19;63.95
60417;BME280;46263;44.726;10.396;2023-05-09T00:30:30;100781.41;;;20.23;63.88
60417;BME280;46263;44.726;10.396;2023-05-09T00:32:55;100782.91;;;20.24;64.32
60417;BME280;46263;44.726;10.396;2023-05-09T00:35:21;100788.75;;;20.26;64.55
60417;BME280;46263;44.726;10.396;2023-05-09T00:37:46;100770.16;;;20.32;64.11
60417;BME280;46263;44.726;10.396;2023-05-09T00:40:12;100769.97;;;20.30;63.92
60417;BME280;46263;44.726;10.396;2023-05-09T00:42:38;100771.50;;;20.31;64.04
60417;BME280;46263;44.726;10.396;2023-05-09T00:45:03;100760.06;;;20.39;63.66
60417;BME280;46263;44.726;10.396;2023-05-09T00:47:29;100759.91;;;20.37;63.69
60417;BME280;46263;44.726;10.396;2023-05-09T00:49:56;100766.16;;;20.35;63.68
60417;BME280;46263;44.726;10.396;2023-05-09T00:52:24;100748.94;;;20.33;63.38
60417;BME280;46263;44.726;10.396;2023-05-09T00:54:54;100747.44;;;20.32;63.69
60417;BME280;46263;44.726;10.396;2023-05-09T00:57:23;100752.75;;;20.28;63.78
60417;BME280;46263;44.726;10.396;2023-05-09T00:59:48;100750.19;;;20.23;64.18
60417;BME280;46263;44.726;10.396;2023-05-09T01:02:16;100748.81;;;20.24;63.90
60417;BME280;46263;44.726;10.396;2023-05-09T01:04:43;100747.09;;;20.28;63.57
60417;BME280;46263;44.726;10.396;2023-05-09T01:07:15;100748.25;;;20.25;63.64
60417;BME280;46263;44.726;10.396;2023-05-09T01:15:24;100733.72;;;20.21;63.47
60417;BME280;46263;44.726;10.396;2023-05-09T01:18:08;100734.06;;;20.25;63.28
60417;BME280;46263;44.726;10.396;2023-05-09T01:20:45;100740.91;;;20.22;63.42
60417;BME280;46263;44.726;10.396;2023-05-09T01:26:05;100732.97;;;20.21;63.79
60417;BME280;46263;44.726;10.396;2023-05-09T01:31:21;100756.66;;;20.16;63.50
60417;BME280;46263;44.726;10.396;2023-05-09T01:33:52;100747.22;;;20.13;63.48
60417;BME280;46263;44.726;10.396;2023-05-09T01:36:18;100751.06;;;20.08;63.77
60417;BME280;46263;44.726;10.396;2023-05-09T01:38:48;100752.38;;;20.07;62.96
60417;BME280;46263;44.726;10.396;2023-05-09T01:41:15;100750.47;;;20.10;63.28
60417;BME280;46263;44.726;10.396;2023-05-09T01:43:45;100752.56;;;20.09;63.18
60417;BME280;46263;44.726;10.396;2023-05-09T01:46:11;100752.38;;;20.07;63.08
60417;BME280;46263;44.726;10.396;2023-05-09T01:48:38;100750.28;;;19.84;64.14
60417;BME280;46263;44.726;10.396;2023-05-09T01:51:06;100751.41;;;19.81;64.24
60417;BME280;46263;44.726;10.396;2023-05-09T01:53:34;100755.94;;;19.84;63.94
60417;BME280;46263;44.726;10.396;2023-05-09T01:56:02;100755.72;;;19.89;63.99
60417;BME280;46263;44.726;10.396;2023-05-09T01:58:30;100756.66;;;19.92;63.70
60417;BME280;46263;44.726;10.396;2023-05-09T02:00:59;100751.50;;;19.98;63.45
60417;BME280;46263;44.726;10.396;2023-05-09T02:03:25;100747.94;;;19.97;64.05
60417;BME280;46263;44.726;10.396;2023-05-09T02:05:51;100748.31;;;19.94;64.56
60417;BME280;46263;44.726;10.396;2023-05-09T02:08:18;100750.59;;;19.88;64.12
60417;BME280;46263;44.726;10.396;2023-05-09T02:10:47;100750.97;;;19.92;64.27
60417;BME280;46263;44.726;10.396;2023-05-09T02:13:13;100742.28;;;19.90;64.59
60417;BME280;46263;44.726;10.396;2023-05-09T02:15:38;100747.00;;;19.95;64.36
60417;BME280;46263;44.726;10.396;2023-05-09T02:18:04;100747.94;;;19.97;64.04
60417;BME280;46263;44.726;10.396;2023-05-09T02:20:30;100738.84;;;19.99;63.85
60417;BME280;46263;44.726;10.396;2023-05-09T02:22:55;100743.44;;;19.87;63.98
60417;BME280;46263;44.726;10.396;2023-05-09T02:25:21;100750.78;;;19.65;64.41
60417;BME280;46263;44.726;10.396;2023-05-09T02:27:47;100749.13;;;19.55;64.35
60417;BME280;46263;44.726;10.396;2023-05-09T02:30:19;100755.06;;;19.42;65.03
60417;BME280;46263;44.726;10.396;2023-05-09T02:32:51;100746.94;;;19.46;64.60
60417;BME280;46263;44.726;10.396;2023-05-09T02:35:18;100743.09;;;19.51;64.98
60417;BME280;46263;44.726;10.396;2023-05-09T02:37:44;100742.13;;;19.56;64.43
60417;BME280;46263;44.726;10.396;2023-05-09T02:40:10;100744.97;;;19.56;64.86
60417;BME280;46263;44.726;10.396;2023-05-09T02:42:36;100730.97;;;19.58;64.80
60417;BME280;46263;44.726;10.396;2023-05-09T02:45:02;100732.66;;;19.61;65.07
60417;BME280;46263;44.726;10.396;2023-05-09T02:47:27;100734.94;;;19.55;65.00
60417;BME280;46263;44.726;10.396;2023-05-09T02:49:53;100734.16;;;19.62;64.51
60417;BME280;46263;44.726;10.396;2023-05-09T02:52:18;100726.91;;;19.44;64.94
60417;BME280;46263;44.726;10.396;2023-05-09T02:54:44;100732.97;;;19.40;64.95
60417;BME280;46263;44.726;10.396;2023-05-09T02:57:10;100733.91;;;19.43;65.25
60417;BME280;46263;44.726;10.396;2023-05-09T02:59:35;100735.59;;;19.46;64.88
60417;BME280;46263;44.726;10.396;2023-05-09T03:02:01;100738.97;;;19.44;65.22
60417;BME280;46263;44.726;10.396;2023-05-09T03:04:27;100739.53;;;19.50;64.56
60417;BME280;46263;44.726;10.396;2023-05-09T03:06:52;100745.22;;;19.50;65.00
60417;BME280;46263;44.726;10.396;2023-05-09T03:09:18;100741.00;;;19.51;64.96
60417;BME280;46263;44.726;10.396;2023-05-09T03:11:44;100745.53;;;19.54;64.77
60417;BME280;46263;44.726;10.396;2023-05-09T03:14:09;100740.63;;;19.55;64.87
60417;BME280;46263;44.726;10.396;2023-05-09T03:16:37;100738.38;;;19.53;64.38
60417;BME280;46263;44.726;10.396;2023-05-09T03:19:03;100738.94;;;19.52;64.57
60417;BME280;46263;44.726;10.396;2023-05-09T03:21:28;100754.09;;;19.47;65.03
60417;BME280;46263;44.726;10.396;2023-05-09T03:23:55;100754.09;;;19.47;64.63
60417;BME280;46263;44.726;10.396;2023-05-09T03:26:20;100757.38;;;19.36;64.91
60417;BME280;46263;44.726;10.396;2023-05-09T03:28:46;100759.03;;;19.39;65.24
60417;BME280;46263;44.726;10.396;2023-05-09T03:31:13;100744.09;;;19.46;65.60
60417;BME280;46263;44.726;10.396;2023-05-09T03:33:38;100752.34;;;19.51;64.88
60417;BME280;46263;44.726;10.396;2023-05-09T03:36:04;100748.19;;;19.52;65.03
60417;BME280;46263;44.726;10.396;2023-05-09T03:38:29;100744.50;;;19.42;64.46
60417;BME280;46263;44.726;10.396;2023-05-09T03:40:55;100745.56;;;19.47;64.86
60417;BME280;46263;44.726;10.396;2023-05-09T03:43:20;100748.25;;;19.45;65.03
60417;BME280;46263;44.726;10.396;2023-05-09T03:45:46;100745.56;;;19.47;65.07
60417;BME280;46263;44.726;10.396;2023-05-09T03:48:11;100737.66;;;19.45;64.99
60417;BME280;46263;44.726;10.396;2023-05-09T03:50:37;100735.00;;;19.47;65.07
60417;BME280;46263;44.726;10.396;2023-05-09T03:53:03;100747.09;;;19.48;65.17
60417;BME280;46263;44.726;10.396;2023-05-09T03:55:28;100741.81;;;19.44;65.39
60417;BME280;46263;44.726;10.396;2023-05-09T03:57:54;100733.53;;;19.39;65.45
60417;BME280;46263;44.726;10.396;2023-05-09T04:00:21;100727.47;;;19.42;65.02
60417;BME280;46263;44.726;10.396;2023-05-09T04:02:47;100733.50;;;19.46;65.28
60417;BME280;46263;44.726;10.396;2023-05-09T04:05:13;100725.38;;;19.43;65.72
60417;BME280;46263;44.726;10.396;2023-05-09T04:07:39;100729.53;;;19.42;65.72
60417;BME280;46263;44.726;10.396;2023-05-09T04:10:06;100736.72;;;19.43;64.98
60417;BME280;46263;44.726;10.396;2023-05-09T04:12:32;100734.81;;;19.45;65.63
60417;BME280;46263;44.726;10.396;2023-05-09T04:14:57;100729.72;;;19.44;65.47
60417;BME280;46263;44.726;10.396;2023-05-09T04:17:23;100727.47;;;19.42;65.49
60417;BME280;46263;44.726;10.396;2023-05-09T04:19:48;100729.97;;;19.31;66.00
60417;BME280;46263;44.726;10.396;2023-05-09T04:22:14;100732.66;;;19.29;66.07
60417;BME280;46263;44.726;10.396;2023-05-09T04:24:39;100727.53;;;19.27;65.91
60417;BME280;46263;44.726;10.396;2023-05-09T04:27:05;100736.75;;;19.35;65.52
60417;BME280;46263;44.726;10.396;2023-05-09T04:29:31;100739.59;;;19.35;66.21
60417;BME280;46263;44.726;10.396;2023-05-09T04:31:56;100741.88;;;19.37;65.81
60417;BME280;46263;44.726;10.396;2023-05-09T04:34:22;100731.66;;;19.34;65.52
60417;BME280;46263;44.726;10.396;2023-05-09T04:36:47;100744.16;;;19.31;66.15
60417;BME280;46263;44.726;10.396;2023-05-09T04:39:13;100746.59;;;19.34;65.33
60417;BME280;46263;44.726;10.396;2023-05-09T04:41:38;100746.97;;;19.38;65.05
60417;BME280;46263;44.726;10.396;2023-05-09T04:44:04;100750.91;;;19.43;65.42
60417;BME280;46263;44.726;10.396;2023-05-09T04:46:30;100742.41;;;19.43;65.92
60417;BME280;46263;44.726;10.396;2023-05-09T04:48:55;100743.38;;;19.38;65.47
60417;BME280;46263;44.726;10.396;2023-05-09T04:51:20;100744.72;;;19.29;65.76
60417;BME280;46263;44.726;10.396;2023-05-09T04:53:46;100739.13;;;19.22;66.34
60417;BME280;46263;44.726;10.396;2023-05-09T04:56:11;100741.19;;;19.22;65.66
60417;BME280;46263;44.726;10.396;2023-05-09T04:58:37;100751.94;;;19.23;66.57
60417;BME280;46263;44.726;10.396;2023-05-09T05:01:05;100748.75;;;19.19;66.08
60417;BME280;46263;44.726;10.396;2023-05-09T05:03:31;100750.28;;;19.20;65.66
60417;BME280;46263;44.726;10.396;2023-05-09T05:05:57;100762.56;;;19.15;66.07
60417;BME280;46263;44.726;10.396;2023-05-09T05:08:22;100748.94;;;19.21;65.90
60417;BME280;46263;44.726;10.396;2023-05-09T05:10:48;100764.00;;;19.31;65.47
60417;BME280;46263;44.726;10.396;2023-05-09T05:13:14;100768.56;;;19.26;64.64
60417;BME280;46263;44.726;10.396;2023-05-09T05:15:40;100768.38;;;19.24;64.86
60417;BME280;46263;44.726;10.396;2023-05-09T05:18:06;100767.22;;;19.27;64.96
60417;BME280;46263;44.726;10.396;2023-05-09T05:20:31;100763.84;;;19.29;65.02
60417;BME280;46263;44.726;10.396;2023-05-09T05:22:57;100765.34;;;19.30;64.72
60417;BME280;46263;44.726;10.396;2023-05-09T05:25:23;100767.94;;;19.35;64.50
60417;BME280;46263;44.726;10.396;2023-05-09T05:27:49;100764.56;;;19.37;64.87
60417;BME280;46263;44.726;10.396;2023-05-09T05:30:14;100763.38;;;19.40;64.40
60417;BME280;46263;44.726;10.396;2023-05-09T05:32:40;100766.84;;;19.31;64.68
60417;BME280;46263;44.726;10.396;2023-05-09T05:35:05;100760.41;;;19.38;64.60
60417;BME280;46263;44.726;10.396;2023-05-09T05:37:31;100761.88;;;19.39;64.88
60417;BME280;46263;44.726;10.396;2023-05-09T05:39:56;100768.34;;;19.32;65.26
60417;BME280;46263;44.726;10.396;2023-05-09T05:42:22;100774.19;;;19.34;65.62
60417;BME280;46263;44.726;10.396;2023-05-09T05:44:47;100777.16;;;19.43;65.29
60417;BME280;46263;44.726;10.396;2023-05-09T05:47:13;100772.44;;;19.46;65.61
60417;BME280;46263;44.726;10.396;2023-05-09T05:49:38;100771.69;;;19.45;66.15
60417;BME280;46263;44.726;10.396;2023-05-09T05:52:04;100761.44;;;19.50;66.22
60417;BME280;46263;44.726;10.396;2023-05-09T05:54:29;100768.97;;;19.55;66.01
60417;BME280;46263;44.726;10.396;2023-05-09T05:56:55;100766.69;;;19.61;66.44
60417;BME280;46263;44.726;10.396;2023-05-09T05:59:20;100762.53;;;19.62;66.55
60417;BME280;46263;44.726;10.396;2023-05-09T06:01:46;100757.00;;;19.64;66.28
60417;BME280;46263;44.726;10.396;2023-05-09T06:04:11;100759.41;;;19.75;66.03
60417;BME280;46263;44.726;10.396;2023-05-09T06:06:37;100756.94;;;19.79;66.16
60417;BME280;46263;44.726;10.396;2023-05-09T06:09:02;100760.28;;;19.85;65.92
60417;BME280;46263;44.726;10.396;2023-05-09T06:11:28;100769.31;;;19.91;66.03
60417;BME280;46263;44.726;10.396;2023-05-09T06:13:53;100768.72;;;19.92;65.81
60417;BME280;46263;44.726;10.396;2023-05-09T06:16:19;100758.53;;;19.97;66.00
60417;BME280;46263;44.726;10.396;2023-05-09T06:18:45;100763.38;;;20.03;66.01
60417;BME280;46263;44.726;10.396;2023-05-09T06:21:11;100764.16;;;20.04;66.24
60417;BME280;46263;44.726;10.396;2023-05-09T06:23:36;100766.75;;;20.09;66.23
60417;BME280;46263;44.726;10.396;2023-05-09T06:26:02;100755.56;;;20.11;66.08
60417;BME280;46263;44.726;10.396;2023-05-09T06:28:28;100749.03;;;20.02;67.15
60417;BME280;46263;44.726;10.396;2023-05-09T06:30:54;100745.97;;;20.07;66.50
60417;BME280;46263;44.726;10.396;2023-05-09T06:33:20;100742.53;;;20.08;66.44
60417;BME280;46263;44.726;10.396;2023-05-09T06:35:45;100745.88;;;20.14;66.32
60417;BME280;46263;44.726;10.396;2023-05-09T06:38:11;100747.81;;;20.12;66.58
60417;BME280;46263;44.726;10.396;2023-05-09T06:40:36;100738.53;;;20.11;66.56
60417;BME280;46263;44.726;10.396;2023-05-09T06:43:02;100734.63;;;20.07;66.75
60417;BME280;46263;44.726;10.396;2023-05-09T06:45:27;100739.28;;;20.12;66.70
60417;BME280;46263;44.726;10.396;2023-05-09T06:47:54;100732.63;;;20.17;66.43
60417;BME280;46263;44.726;10.396;2023-05-09T06:50:20;100733.78;;;20.14;66.44
60417;BME280;46263;44.726;10.396;2023-05-09T06:52:45;100729.38;;;20.20;66.49
60417;BME280;46263;44.726;10.396;2023-05-09T06:55:11;100723.53;;;20.18;66.02
60417;BME280;46263;44.726;10.396;2023-05-09T06:57:37;100728.03;;;20.21;65.37
60417;BME280;46263;44.726;10.396;2023-05-09T07:00:05;100740.22;;;20.14;66.22
60417;BME280;46263;44.726;10.396;2023-05-09T07:02:30;100737.66;;;20.26;65.11
60417;BME280;46263;44.726;10.396;2023-05-09T07:04:56;100737.06;;;20.27;64.91
60417;BME280;46263;44.726;10.396;2023-05-09T07:07:21;100741.94;;;20.34;64.62
60417;BME280;46263;44.726;10.396;2023-05-09T07:09:47;100744.13;;;20.43;63.59
60417;BME280;46263;44.726;10.396;2023-05-09T07:12:12;100742.94;;;20.46;63.81
60417;BME280;46263;44.726;10.396;2023-05-09T07:14:37;100738.34;;;20.51;63.48
60417;BME280;46263;44.726;10.396;2023-05-09T07:17:03;100731.53;;;20.54;63.26
60417;BME280;46263;44.726;10.396;2023-05-09T07:19:29;100743.63;;;20.54;62.75
60417;BME280;46263;44.726;10.396;2023-05-09T07:21:54;100731.28;;;20.59;62.98
60417;BME280;46263;44.726;10.396;2023-05-09T07:24:20;100738.28;;;20.58;62.79
60417;BME280;46263;44.726;10.396;2023-05-09T07:26:45;100729.91;;;20.60;62.85
60417;BME280;46263;44.726;10.396;2023-05-09T07:29:11;100733.78;;;20.55;62.93
60417;BME280;46263;44.726;10.396;2023-05-09T07:31:36;100743.13;;;20.65;62.68
60417;BME280;46263;44.726;10.396;2023-05-09T07:34:02;100753.31;;;20.68;62.37
60417;BME280;46263;44.726;10.396;2023-05-09T07:36:27;100759.19;;;20.70;63.02
60417;BME280;46263;44.726;10.396;2023-05-09T07:38:52;100764.81;;;20.78;62.64
60417;BME280;46263;44.726;10.396;2023-05-09T07:41:18;100754.69;;;20.84;62.82
60417;BME280;46263;44.726;10.396;2023-05-09T07:43:44;100751.28;;;20.86;62.30
60417;BME280;46263;44.726;10.396;2023-05-09T07:46:09;100749.34;;;20.88;61.62
60417;BME280;46263;44.726;10.396;2023-05-09T07:48:35;100754.53;;;20.99;61.69
60417;BME280;46263;44.726;10.396;2023-05-09T07:51:02;100743.47;;;21.03;61.90
60417;BME280;46263;44.726;10.396;2023-05-09T07:53:27;100745.34;;;21.08;62.05
60417;BME280;46263;44.726;10.396;2023-05-09T07:55:53;100744.31;;;21.13;62.02
60417;BME280;46263;44.726;10.396;2023-05-09T07:58:18;100731.00;;;21.15;61.87
60417;BME280;46263;44.726;10.396;2023-05-09T08:00:44;100732.09;;;21.20;61.16
60417;BME280;46263;44.726;10.396;2023-05-09T08:03:09;100737.03;;;21.19;62.04
60417;BME280;46263;44.726;10.396;2023-05-09T08:05:35;100738.94;;;21.17;62.08
60417;BME280;46263;44.726;10.396;2023-05-09T08:08:00;100741.03;;;21.16;61.76
60417;BME280;46263;44.726;10.396;2023-05-09T08:10:26;100740.63;;;21.20;61.65
60417;BME280;46263;44.726;10.396;2023-05-09T08:12:55;100733.00;;;21.22;61.49
60417;BME280;46263;44.726;10.396;2023-05-09T08:15:20;100729.41;;;21.22;61.37
60417;BME280;46263;44.726;10.396;2023-05-09T08:17:46;100726.75;;;21.24;61.53
60417;BME280;46263;44.726;10.396;2023-05-09T08:20:11;100726.31;;;21.27;61.49
60417;BME280;46263;44.726;10.396;2023-05-09T08:22:38;100715.41;;;21.33;61.79
60417;BME280;46263;44.726;10.396;2023-05-09T08:25:04;100713.47;;;21.36;61.69
60417;BME280;46263;44.726;10.396;2023-05-09T08:27:30;100714.16;;;21.27;62.38
60417;BME280;46263;44.726;10.396;2023-05-09T08:29:55;100712.34;;;21.22;62.65
60417;BME280;46263;44.726;10.396;2023-05-09T08:32:23;100715.16;;;21.39;61.83
60417;BME280;46263;44.726;10.396;2023-05-09T08:34:49;100707.09;;;21.45;61.89
60417;BME280;46263;44.726;10.396;2023-05-09T08:37:14;100702.66;;;21.51;62.17
60417;BME280;46263;44.726;10.396;2023-05-09T08:39:40;100699.88;;;21.61;61.25
60417;BME280;46263;44.726;10.396;2023-05-09T08:42:07;100697.50;;;21.67;61.83
60417;BME280;46263;44.726;10.396;2023-05-09T08:44:33;100693.91;;;21.66;61.88
60417;BME280;46263;44.726;10.396;2023-05-09T08:47:01;100700.31;;;21.57;61.18
60417;BME280;46263;44.726;10.396;2023-05-09T08:49:27;100708.78;;;21.74;61.16
60417;BME280;46263;44.726;10.396;2023-05-09T08:51:54;100711.47;;;21.81;61.72
60417;BME280;46263;44.726;10.396;2023-05-09T08:54:21;100707.91;;;21.81;60.42
60417;BME280;46263;44.726;10.396;2023-05-09T08:56:46;100711.09;;;21.94;60.53
60417;BME280;46263;44.726;10.396;2023-05-09T08:59:13;100711.09;;;21.94;61.18
60417;BME280;46263;44.726;10.396;2023-05-09T09:01:39;100713.53;;;22.07;60.30
60417;BME280;46263;44.726;10.396;2023-05-09T09:04:06;100710.72;;;22.17;60.70
60417;BME280;46263;44.726;10.396;2023-05-09T09:06:35;100715.50;;;22.14;60.78
60417;BME280;46263;44.726;10.396;2023-05-09T09:09:01;100704.09;;;22.14;59.98
60417;BME280;46263;44.726;10.396;2023-05-09T09:11:32;100707.91;;;22.26;59.56
60417;BME280;46263;44.726;10.396;2023-05-09T09:14:00;100693.25;;;22.39;59.68
60417;BME280;46263;44.726;10.396;2023-05-09T09:16:27;100692.34;;;22.46;61.43
60417;BME280;46263;44.726;10.396;2023-05-09T09:18:54;100690.72;;;22.52;59.97
60417;BME280;46263;44.726;10.396;2023-05-09T09:21:21;100690.41;;;22.58;59.23
60417;BME280;46263;44.726;10.396;2023-05-09T09:23:49;100687.13;;;22.61;59.99
60417;BME280;46263;44.726;10.396;2023-05-09T09:26:14;100679.31;;;22.71;59.04
60417;BME280;46263;44.726;10.396;2023-05-09T09:28:41;100680.38;;;22.76;57.84
60417;BME280;46263;44.726;10.396;2023-05-09T09:31:20;100675.72;;;22.80;58.07
60417;BME280;46263;44.726;10.396;2023-05-09T09:33:47;100668.66;;;22.72;58.26
60417;BME280;46263;44.726;10.396;2023-05-09T09:36:13;100670.59;;;22.79;57.73
60417;BME280;46263;44.726;10.396;2023-05-09T09:38:40;100658.31;;;22.76;57.78
60417;BME280;46263;44.726;10.396;2023-05-09T09:41:06;100658.91;;;22.75;58.46
60417;BME280;46263;44.726;10.396;2023-05-09T09:43:32;100654.09;;;22.77;58.13
60417;BME280;46263;44.726;10.396;2023-05-09T09:46:02;100652.00;;;22.78;58.11
60417;BME280;46263;44.726;10.396;2023-05-09T09:48:32;100644.22;;;22.78;59.58
60417;BME280;46263;44.726;10.396;2023-05-09T09:51:08;100648.09;;;22.83;58.48
60417;BME280;46263;44.726;10.396;2023-05-09T09:53:42;100651.38;;;22.89;60.00
60417;BME280;46263;44.726;10.396;2023-05-09T09:56:08;100638.19;;;22.93;58.32
60417;BME280;46263;44.726;10.396;2023-05-09T09:58:34;100652.91;;;22.90;58.09
60417;BME280;46263;44.726;10.396;2023-05-09T10:01:07;100644.94;;;22.98;59.07
60417;BME280;46263;44.726;10.396;2023-05-09T10:06:01;100649.44;;;23.10;57.73
60417;BME280;46263;44.726;10.396;2023-05-09T10:08:27;100649.28;;;23.18;57.21
60417;BME280;46263;44.726;10.396;2023-05-09T10:10:52;100649.28;;;23.18;57.89
60417;BME280;46263;44.726;10.396;2023-05-09T10:13:19;100638.75;;;23.20;57.10
60417;BME280;46263;44.726;10.396;2023-05-09T10:15:45;100640.72;;;23.18;56.68
60417;BME280;46263;44.726;10.396;2023-05-09T10:18:11;100640.72;;;23.18;56.91
60417;BME280;46263;44.726;10.396;2023-05-09T10:20:38;100641.31;;;23.26;57.32
60417;BME280;46263;44.726;10.396;2023-05-09T10:23:06;100638.88;;;23.32;58.08
60417;BME280;46263;44.726;10.396;2023-05-09T10:25:50;100633.38;;;23.15;56.53
60417;BME280;46263;44.726;10.396;2023-05-09T10:28:22;100631.34;;;23.27;57.04
60417;BME280;46263;44.726;10.396;2023-05-09T10:31:05;100628.31;;;23.43;56.45
60417;BME280;46263;44.726;10.396;2023-05-09T10:33:50;100622.75;;;23.45;56.62
60417;BME280;46263;44.726;10.396;2023-05-09T10:36:17;100613.38;;;23.54;58.06
60417;BME280;46263;44.726;10.396;2023-05-09T10:38:46;100625.22;;;23.60;56.64
60417;BME280;46263;44.726;10.396;2023-05-09T10:41:12;100614.38;;;23.68;56.30
60417;BME280;46263;44.726;10.396;2023-05-09T10:43:38;100613.75;;;23.79;56.55
60417;BME280;46263;44.726;10.396;2023-05-09T10:46:05;100599.59;;;23.81;55.42
60417;BME280;46263;44.726;10.396;2023-05-09T10:48:35;100597.50;;;23.82;55.71
60417;BME280;46263;44.726;10.396;2023-05-09T10:51:02;100598.53;;;23.86;56.04
60417;BME280;46263;44.726;10.396;2023-05-09T10:53:49;100585.41;;;23.93;54.24
60417;BME280;46263;44.726;10.396;2023-05-09T10:56:32;100599.22;;;23.96;54.65
60417;BME280;46263;44.726;10.396;2023-05-09T10:58:59;100590.31;;;24.02;55.91
60417;BME280;46263;44.726;10.396;2023-05-09T11:01:42;100584.13;;;24.05;54.31
60417;BME280;46263;44.726;10.396;2023-05-09T11:04:12;100575.81;;;24.09;53.24
60417;BME280;46263;44.726;10.396;2023-05-09T11:11:58;100570.34;;;24.34;55.05
60417;BME280;46263;44.726;10.396;2023-05-09T11:22:18;100554.28;;;24.50;54.19
60417;BME280;46263;44.726;10.396;2023-05-09T11:24:48;100554.56;;;24.54;54.60
60417;BME280;46263;44.726;10.396;2023-05-09T11:27:25;100550.72;;;24.61;52.80
60417;BME280;46263;44.726;10.396;2023-05-09T11:29:54;100557.94;;;24.62;55.43
60417;BME280;46263;44.726;10.396;2023-05-09T11:32:21;100543.00;;;24.63;54.42
60417;BME280;46263;44.726;10.396;2023-05-09T11:34:51;100543.53;;;24.71;53.31
60417;BME280;46263;44.726;10.396;2023-05-09T11:37:17;100533.84;;;24.76;54.10
60417;BME280;46263;44.726;10.396;2023-05-09T11:39:59;100536.19;;;24.80;54.42
60417;BME280;46263;44.726;10.396;2023-05-09T11:42:29;100532.13;;;24.83;53.89
60417;BME280;46263;44.726;10.396;2023-05-09T11:44:56;100532.75;;;24.81;53.26
60417;BME280;46263;44.726;10.396;2023-05-09T11:47:22;100537.69;;;24.81;53.90
60417;BME280;46263;44.726;10.396;2023-05-09T11:49:49;100534.09;;;24.80;52.02
60417;BME280;46263;44.726;10.396;2023-05-09T11:52:18;100513.31;;;24.80;53.65
60417;BME280;46263;44.726;10.396;2023-05-09T11:54:44;100514.47;;;24.86;52.38
60417;BME280;46263;44.726;10.396;2023-05-09T11:57:09;100507.75;;;24.93;53.50
60417;BME280;46263;44.726;10.396;2023-05-09T11:59:42;100507.25;;;24.96;53.23
60417;BME280;46263;44.726;10.396;2023-05-09T12:02:08;100493.44;;;25.04;54.20
60417;BME280;46263;44.726;10.396;2023-05-09T12:04:34;100498.66;;;25.08;51.81
60417;BME280;46263;44.726;10.396;2023-05-09T12:07:01;100496.56;;;24.97;52.11
60417;BME280;46263;44.726;10.396;2023-05-09T12:09:31;100489.97;;;24.95;52.10
60417;BME280;46263;44.726;10.396;2023-05-09T12:11:57;100489.59;;;25.00;51.85
60417;BME280;46263;44.726;10.396;2023-05-09T12:14:30;100482.00;;;25.04;52.57
60417;BME280;46263;44.726;10.396;2023-05-09T12:16:56;100477.78;;;25.05;51.38
60417;BME280;46263;44.726;10.396;2023-05-09T12:19:23;100468.22;;;25.12;51.51
60417;BME280;46263;44.726;10.396;2023-05-09T12:21:58;100469.63;;;25.11;52.16
60417;BME280;46263;44.726;10.396;2023-05-09T12:24:25;100459.91;;;25.16;52.36
60417;BME280;46263;44.726;10.396;2023-05-09T12:26:51;100460.03;;;25.18;51.90
60417;BME280;46263;44.726;10.396;2023-05-09T12:29:17;100462.03;;;25.16;51.89
60417;BME280;46263;44.726;10.396;2023-05-09T12:31:43;100464.13;;;25.15;51.88
60417;BME280;46263;44.726;10.396;2023-05-09T12:34:10;100447.81;;;25.18;52.07
60417;BME280;46263;44.726;10.396;2023-05-09T12:36:36;100445.09;;;25.20;51.49
60417;BME280;46263;44.726;10.396;2023-05-09T12:39:09;100446.06;;;25.24;51.27
60417;BME280;46263;44.726;10.396;2023-05-09T12:41:41;100439.22;;;25.29;51.69
60417;BME280;46263;44.726;10.396;2023-05-09T12:44:07;100442.34;;;25.33;51.14
60417;BME280;46263;44.726;10.396;2023-05-09T12:46:33;100437.72;;;25.40;51.19
60417;BME280;46263;44.726;10.396;2023-05-09T12:48:59;100428.97;;;25.49;51.00
60417;BME280;46263;44.726;10.396;2023-05-09T12:51:24;100431.22;;;25.39;50.02
60417;BME280;46263;44.726;10.396;2023-05-09T12:53:50;100426.88;;;25.38;51.13
60417;BME280;46263;44.726;10.396;2023-05-09T12:56:20;100425.50;;;25.39;50.86
60417;BME280;46263;44.726;10.396;2023-05-09T12:58:53;100428.00;;;25.45;51.78
60417;BME280;46263;44.726;10.396;2023-05-09T13:01:21;100415.25;;;25.59;52.21
60417;BME280;46263;44.726;10.396;2023-05-09T13:04:06;100404.78;;;25.64;50.19
60417;BME280;46263;44.726;10.396;2023-05-09T13:06:33;100413.09;;;25.71;50.30